sensor_id;sensor_type;location;lat;lon;timestamp;pressure;altitude;pressure_sealevel;temperature;humidity
7109;BME280;29079;41.930;25.558;2022-09-01T00:00:30;99302.44;;;21.80;66.08
7109;BME280;29079;41.930;25.558;2022-09-01T00:03:01;99301.19;;;21.89;65.67
7109;BME280;29079;41.930;25.558;2022-09-01T00:05:31;99296.56;;;21.89;65.59
7109;BME280;29079;41.930;25.558;2022-09-01T00:08:03;99291.34;;;21.88;65.58
7109;BME280;29079;41.930;25.558;2022-09-01T00:10:33;99295.38;;;21.79;65.72
7109;BME280;29079;41.930;25.558;2022-09-01T00:13:04;99302.22;;;21.88;65.65
7109;BME280;29079;41.930;25.558;2022-09-01T00:15:35;99294.66;;;21.97;65.38
7109;BME280;29079;41.930;25.558;2022-09-01T00:18:07;99296.31;;;21.98;65.03
7109;BME280;29079;41.930;25.558;2022-09-01T00:20:36;99294.47;;;21.91;64.96
7109;BME280;29079;41.930;25.558;2022-09-01T00:23:06;99300.75;;;21.92;64.76
7109;BME280;29079;41.930;25.558;2022-09-01T00:25:36;99295.47;;;21.97;64.65
7109;BME280;29079;41.930;25.558;2022-09-01T00:28:06;99294.25;;;21.93;64.48
7109;BME280;29079;41.930;25.558;2022-09-01T00:30:36;99250.25;;;21.71;64.38
7109;BME280;29079;41.930;25.558;2022-09-01T00:33:08;99295.22;;;22.05;64.08
7109;BME280;29079;41.930;25.558;2022-09-01T00:35:39;99291.47;;;22.06;63.76
7109;BME280;29079;41.930;25.558;2022-09-01T00:38:09;99287.31;;;22.04;64.12
7109;BME280;29079;41.930;25.558;2022-09-01T00:40:39;99292.34;;;22.00;63.78
7109;BME280;29079;41.930;25.558;2022-09-01T00:43:11;99287.31;;;21.97;64.30
7109;BME280;29079;41.930;25.558;2022-09-01T00:45:43;99291.91;;;22.03;63.85
7109;BME280;29079;41.930;25.558;2022-09-01T00:48:14;99291.63;;;22.12;63.56
7109;BME280;29079;41.930;25.558;2022-09-01T00:50:45;99293.16;;;22.07;63.51
7109;BME280;29079;41.930;25.558;2022-09-01T00:53:22;99251.66;;;21.87;63.39
7109;BME280;29079;41.930;25.558;2022-09-01T00:55:52;99286.22;;;22.12;63.51
7109;BME280;29079;41.930;25.558;2022-09-01T00:58:22;99276.91;;;21.94;63.56
7109;BME280;29079;41.930;25.558;2022-09-01T01:00:52;99286.94;;;21.94;63.97
7109;BME280;29079;41.930;25.558;2022-09-01T01:03:24;99284.25;;;21.87;64.20
7109;BME280;29079;41.930;25.558;2022-09-01T01:05:57;99269.09;;;21.66;64.54
7109;BME280;29079;41.930;25.558;2022-09-01T01:08:30;99266.34;;;21.72;64.36
7109;BME280;29079;41.930;25.558;2022-09-01T01:11:03;99282.84;;;21.78;64.53
7109;BME280;29079;41.930;25.558;2022-09-01T01:13:47;99275.28;;;21.80;64.52
7109;BME280;29079;41.930;25.558;2022-09-01T01:16:19;99277.41;;;21.78;64.70
7109;BME280;29079;41.930;25.558;2022-09-01T01:18:51;99276.31;;;21.85;64.64
7109;BME280;29079;41.930;25.558;2022-09-01T01:21:25;99277.38;;;21.84;64.60
7109;BME280;29079;41.930;25.558;2022-09-01T01:24:22;99279.50;;;21.76;65.06
7109;BME280;29079;41.930;25.558;2022-09-01T01:26:53;99278.06;;;21.66;65.36
7109;BME280;29079;41.930;25.558;2022-09-01T01:29:25;99274.59;;;21.52;65.78
7109;BME280;29079;41.930;25.558;2022-09-01T01:31:57;99276.00;;;21.68;65.41
7109;BME280;29079;41.930;25.558;2022-09-01T01:34:28;99268.22;;;21.72;65.36
7109;BME280;29079;41.930;25.558;2022-09-01T01:36:58;99273.72;;;21.52;66.07
7109;BME280;29079;41.930;25.558;2022-09-01T01:39:30;99273.31;;;21.48;66.21
7109;BME280;29079;41.930;25.558;2022-09-01T01:42:00;99275.00;;;21.43;66.43
7109;BME280;29079;41.930;25.558;2022-09-01T01:44:31;99277.28;;;21.46;66.27
7109;BME280;29079;41.930;25.558;2022-09-01T01:47:02;99274.59;;;21.32;66.70
7109;BME280;29079;41.930;25.558;2022-09-01T01:49:37;99271.91;;;21.32;66.79
7109;BME280;29079;41.930;25.558;2022-09-01T01:52:12;99267.50;;;21.31;66.79
7109;BME280;29079;41.930;25.558;2022-09-01T01:54:46;99270.03;;;21.26;67.11
7109;BME280;29079;41.930;25.558;2022-09-01T01:57:17;99270.03;;;21.26;66.99
7109;BME280;29079;41.930;25.558;2022-09-01T01:59:47;99271.47;;;21.29;66.94
7109;BME280;29079;41.930;25.558;2022-09-01T02:02:17;99268.16;;;21.20;67.04
7109;BME280;29079;41.930;25.558;2022-09-01T02:04:47;99261.28;;;21.17;67.11
7109;BME280;29079;41.930;25.558;2022-09-01T02:07:17;99267.72;;;21.23;66.86
7109;BME280;29079;41.930;25.558;2022-09-01T02:09:49;99259.63;;;21.10;67.57
7109;BME280;29079;41.930;25.558;2022-09-01T02:12:21;99256.25;;;21.21;67.33
7109;BME280;29079;41.930;25.558;2022-09-01T02:14:52;99257.94;;;21.22;67.29
7109;BME280;29079;41.930;25.558;2022-09-01T02:17:22;99261.28;;;21.11;67.69
7109;BME280;29079;41.930;25.558;2022-09-01T02:19:54;99264.25;;;20.96;68.32
7109;BME280;29079;41.930;25.558;2022-09-01T02:22:25;99263.63;;;20.80;68.85
7109;BME280;29079;41.930;25.558;2022-09-01T02:24:57;99272.38;;;20.76;69.77
7109;BME280;29079;41.930;25.558;2022-09-01T02:27:28;99269.69;;;20.76;69.97
7109;BME280;29079;41.930;25.558;2022-09-01T02:30:02;99264.25;;;20.76;69.97
7109;BME280;29079;41.930;25.558;2022-09-01T02:32:34;99254.88;;;20.72;70.09
7109;BME280;29079;41.930;25.558;2022-09-01T02:35:05;99254.25;;;20.83;69.68
7109;BME280;29079;41.930;25.558;2022-09-01T02:37:37;99252.16;;;20.92;69.42
7109;BME280;29079;41.930;25.558;2022-09-01T02:40:10;99254.03;;;20.78;69.69
7109;BME280;29079;41.930;25.558;2022-09-01T02:42:40;99260.47;;;20.63;70.21
7109;BME280;29079;41.930;25.558;2022-09-01T02:45:11;99252.97;;;20.65;69.95
7109;BME280;29079;41.930;25.558;2022-09-01T02:47:46;99258.00;;;20.68;70.01
7109;BME280;29079;41.930;25.558;2022-09-01T02:50:16;99259.03;;;20.61;70.26
7109;BME280;29079;41.930;25.558;2022-09-01T02:52:46;99270.66;;;20.55;70.51
7109;BME280;29079;41.930;25.558;2022-09-01T02:55:20;99269.22;;;20.52;70.55
7109;BME280;29079;41.930;25.558;2022-09-01T02:57:51;99267.13;;;20.54;70.47
7109;BME280;29079;41.930;25.558;2022-09-01T03:00:24;99268.59;;;20.50;70.82
7109;BME280;29079;41.930;25.558;2022-09-01T03:03:01;99266.91;;;20.49;70.70
7109;BME280;29079;41.930;25.558;2022-09-01T03:05:32;99251.47;;;20.29;71.10
7109;BME280;29079;41.930;25.558;2022-09-01T03:08:06;99258.16;;;20.40;71.15
7109;BME280;29079;41.930;25.558;2022-09-01T03:10:40;99264.19;;;20.35;71.31
7109;BME280;29079;41.930;25.558;2022-09-01T03:13:12;99259.63;;;20.36;71.44
7109;BME280;29079;41.930;25.558;2022-09-01T03:15:43;99268.78;;;20.22;71.88
7109;BME280;29079;41.930;25.558;2022-09-01T03:18:14;99271.28;;;20.23;71.86
7109;BME280;29079;41.930;25.558;2022-09-01T03:20:46;99269.81;;;20.27;71.81
7109;BME280;29079;41.930;25.558;2022-09-01T03:23:21;99274.41;;;20.20;71.96
7109;BME280;29079;41.930;25.558;2022-09-01T03:25:54;99278.56;;;20.29;71.74
7109;BME280;29079;41.930;25.558;2022-09-01T03:28:35;99281.25;;;20.16;72.19
7109;BME280;29079;41.930;25.558;2022-09-01T03:31:06;99280.63;;;20.14;72.39
7109;BME280;29079;41.930;25.558;2022-09-01T03:33:36;99249.75;;;20.02;72.03
7109;BME280;29079;41.930;25.558;2022-09-01T03:36:07;99281.25;;;20.16;72.31
7109;BME280;29079;41.930;25.558;2022-09-01T03:38:47;99278.13;;;20.19;72.12
7109;BME280;29079;41.930;25.558;2022-09-01T03:41:19;99273.56;;;20.13;72.27
7109;BME280;29079;41.930;25.558;2022-09-01T03:43:51;99271.25;;;20.16;72.06
7109;BME280;29079;41.930;25.558;2022-09-01T03:46:26;99272.06;;;20.17;72.20
7109;BME280;29079;41.930;25.558;2022-09-01T03:49:04;99264.13;;;20.02;72.52
7109;BME280;29079;41.930;25.558;2022-09-01T03:51:35;99273.09;;;20.03;72.81
7109;BME280;29079;41.930;25.558;2022-09-01T03:54:07;99274.34;;;20.07;72.69
7109;BME280;29079;41.930;25.558;2022-09-01T03:56:37;99278.28;;;19.97;73.13
7109;BME280;29079;41.930;25.558;2022-09-01T03:59:10;99272.06;;;20.04;73.06
7109;BME280;29079;41.930;25.558;2022-09-01T04:01:45;99249.50;;;19.83;73.36
7109;BME280;29079;41.930;25.558;2022-09-01T04:04:15;99285.81;;;20.09;72.65
7109;BME280;29079;41.930;25.558;2022-09-01T04:06:45;99284.97;;;20.02;73.15
7109;BME280;29079;41.930;25.558;2022-09-01T04:09:15;99298.50;;;20.08;72.80
7109;BME280;29079;41.930;25.558;2022-09-01T04:11:45;99283.53;;;20.06;72.91
7109;BME280;29079;41.930;25.558;2022-09-01T04:14:17;99283.25;;;19.94;73.13
7109;BME280;29079;41.930;25.558;2022-09-01T04:16:47;99288.72;;;20.00;73.06
7109;BME280;29079;41.930;25.558;2022-09-01T04:19:46;99296.00;;;20.07;72.39
7109;BME280;29079;41.930;25.558;2022-09-01T04:22:16;99299.13;;;20.04;72.33
7109;BME280;29079;41.930;25.558;2022-09-01T04:24:48;99298.72;;;20.00;72.43
7109;BME280;29079;41.930;25.558;2022-09-01T04:27:20;99299.94;;;19.97;72.59
7109;BME280;29079;41.930;25.558;2022-09-01T04:29:54;99308.13;;;20.11;72.17
7109;BME280;29079;41.930;25.558;2022-09-01T04:32:25;99305.81;;;20.08;72.29
7109;BME280;29079;41.930;25.558;2022-09-01T04:34:55;99302.47;;;19.99;72.64
7109;BME280;29079;41.930;25.558;2022-09-01T04:37:25;99306.66;;;20.02;72.56
7109;BME280;29079;41.930;25.558;2022-09-01T04:39:56;99286.41;;;19.97;72.68
7109;BME280;29079;41.930;25.558;2022-09-01T04:42:27;99297.06;;;20.06;72.46
7109;BME280;29079;41.930;25.558;2022-09-01T04:45:01;99295.81;;;20.02;72.55
7109;BME280;29079;41.930;25.558;2022-09-01T04:47:38;99308.53;;;20.08;72.39
7109;BME280;29079;41.930;25.558;2022-09-01T04:50:10;99295.00;;;20.14;72.05
7109;BME280;29079;41.930;25.558;2022-09-01T04:52:45;99295.00;;;20.21;71.67
7109;BME280;29079;41.930;25.558;2022-09-01T04:55:16;99291.47;;;20.27;71.32
7109;BME280;29079;41.930;25.558;2022-09-01T04:57:48;99295.88;;;20.28;71.51
7109;BME280;29079;41.930;25.558;2022-09-01T05:00:20;99300.25;;;20.29;71.31
7109;BME280;29079;41.930;25.558;2022-09-01T05:02:53;99314.41;;;20.31;71.29
7109;BME280;29079;41.930;25.558;2022-09-01T05:05:23;99313.81;;;20.29;71.31
7109;BME280;29079;41.930;25.558;2022-09-01T05:07:54;99313.41;;;20.39;70.86
7109;BME280;29079;41.930;25.558;2022-09-01T05:10:25;99306.75;;;20.55;70.22
7109;BME280;29079;41.930;25.558;2022-09-01T05:12:57;99306.09;;;20.40;70.86
7109;BME280;29079;41.930;25.558;2022-09-01T05:15:29;99303.00;;;20.56;70.49
7109;BME280;29079;41.930;25.558;2022-09-01T05:18:00;99297.22;;;20.86;69.36
7109;BME280;29079;41.930;25.558;2022-09-01T05:20:38;99292.81;;;20.98;68.74
7109;BME280;29079;41.930;25.558;2022-09-01T05:23:11;99302.59;;;21.13;68.59
7109;BME280;29079;41.930;25.558;2022-09-01T05:25:42;99295.69;;;21.37;67.65
7109;BME280;29079;41.930;25.558;2022-09-01T05:28:14;99296.09;;;21.54;67.46
7109;BME280;29079;41.930;25.558;2022-09-01T05:30:48;99298.75;;;21.67;66.81
7109;BME280;29079;41.930;25.558;2022-09-01T05:33:21;99296.63;;;21.76;66.87
7109;BME280;29079;41.930;25.558;2022-09-01T05:35:56;99292.22;;;21.82;66.54
7109;BME280;29079;41.930;25.558;2022-09-01T05:38:27;99292.34;;;22.00;65.98
7109;BME280;29079;41.930;25.558;2022-09-01T05:40:59;99284.34;;;22.12;65.27
7109;BME280;29079;41.930;25.558;2022-09-01T05:43:31;99294.25;;;22.32;64.30
7109;BME280;29079;41.930;25.558;2022-09-01T05:46:05;99306.38;;;22.29;63.43
7109;BME280;29079;41.930;25.558;2022-09-01T05:48:37;99295.28;;;22.37;63.28
7109;BME280;29079;41.930;25.558;2022-09-01T05:51:08;99302.31;;;22.52;63.24
7109;BME280;29079;41.930;25.558;2022-09-01T05:53:59;99300.81;;;22.56;62.99
7109;BME280;29079;41.930;25.558;2022-09-01T05:56:30;99301.97;;;22.67;62.58
7109;BME280;29079;41.930;25.558;2022-09-01T05:59:01;99300.94;;;22.68;62.35
7109;BME280;29079;41.930;25.558;2022-09-01T06:01:52;99299.00;;;22.75;62.01
7109;BME280;29079;41.930;25.558;2022-09-01T06:04:24;99309.06;;;22.74;62.43
7109;BME280;29079;41.930;25.558;2022-09-01T06:06:54;99316.66;;;22.91;61.86
7109;BME280;29079;41.930;25.558;2022-09-01T06:09:36;99314.75;;;22.91;61.15
7109;BME280;29079;41.930;25.558;2022-09-01T06:12:08;99319.75;;;22.94;61.16
7109;BME280;29079;41.930;25.558;2022-09-01T06:14:47;99311.22;;;22.91;60.31
7109;BME280;29079;41.930;25.558;2022-09-01T06:17:20;99323.13;;;22.90;60.58
7109;BME280;29079;41.930;25.558;2022-09-01T06:19:54;99323.03;;;23.03;60.36
7109;BME280;29079;41.930;25.558;2022-09-01T06:22:26;99330.75;;;23.06;60.26
7109;BME280;29079;41.930;25.558;2022-09-01T06:24:57;99332.25;;;23.02;60.25
7109;BME280;29079;41.930;25.558;2022-09-01T06:27:31;99330.00;;;23.24;59.93
7109;BME280;29079;41.930;25.558;2022-09-01T06:30:01;99329.09;;;23.30;59.25
7109;BME280;29079;41.930;25.558;2022-09-01T06:32:33;99330.16;;;23.29;59.61
7109;BME280;29079;41.930;25.558;2022-09-01T06:35:06;99325.09;;;23.33;59.87
7109;BME280;29079;41.930;25.558;2022-09-01T06:37:36;99319.72;;;23.45;59.87
7109;BME280;29079;41.930;25.558;2022-09-01T06:40:08;99321.09;;;23.36;59.97
7109;BME280;29079;41.930;25.558;2022-09-01T06:42:46;99326.03;;;23.45;59.94
7109;BME280;29079;41.930;25.558;2022-09-01T06:45:18;99333.41;;;23.57;59.69
7109;BME280;29079;41.930;25.558;2022-09-01T06:47:50;99325.88;;;23.59;59.11
7109;BME280;29079;41.930;25.558;2022-09-01T06:50:27;99325.72;;;23.72;58.66
7109;BME280;29079;41.930;25.558;2022-09-01T06:53:17;99326.25;;;23.81;58.53
7109;BME280;29079;41.930;25.558;2022-09-01T06:56:06;99322.63;;;23.87;58.49
7109;BME280;29079;41.930;25.558;2022-09-01T06:58:41;99317.56;;;23.91;58.35
7109;BME280;29079;41.930;25.558;2022-09-01T07:01:17;99328.66;;;23.71;58.74
7109;BME280;29079;41.930;25.558;2022-09-01T07:03:51;99325.56;;;23.86;58.63
7109;BME280;29079;41.930;25.558;2022-09-01T07:06:25;99307.41;;;23.79;58.56
7109;BME280;29079;41.930;25.558;2022-09-01T07:09:18;99322.59;;;24.06;58.04
7109;BME280;29079;41.930;25.558;2022-09-01T07:12:08;99330.25;;;24.15;57.63
7109;BME280;29079;41.930;25.558;2022-09-01T07:14:53;99323.88;;;24.22;57.70
7109;BME280;29079;41.930;25.558;2022-09-01T07:17:45;99333.94;;;24.21;57.70
7109;BME280;29079;41.930;25.558;2022-09-01T07:20:20;99317.22;;;24.17;57.89
7109;BME280;29079;41.930;25.558;2022-09-01T07:22:54;99322.84;;;24.34;57.87
7109;BME280;29079;41.930;25.558;2022-09-01T07:25:34;99323.03;;;24.51;57.46
7109;BME280;29079;41.930;25.558;2022-09-01T07:28:26;99330.50;;;24.56;57.15
7109;BME280;29079;41.930;25.558;2022-09-01T07:31:08;99327.59;;;24.70;57.09
7109;BME280;29079;41.930;25.558;2022-09-01T07:34:07;99329.63;;;24.74;55.83
7109;BME280;29079;41.930;25.558;2022-09-01T07:37:01;99326.81;;;24.81;56.09
7109;BME280;29079;41.930;25.558;2022-09-01T07:39:51;99323.13;;;24.75;55.38
7109;BME280;29079;41.930;25.558;2022-09-01T07:42:23;99328.81;;;24.85;55.40
7109;BME280;29079;41.930;25.558;2022-09-01T07:45:15;99330.03;;;24.90;54.31
7109;BME280;29079;41.930;25.558;2022-09-01T07:47:54;99325.28;;;24.97;54.49
7109;BME280;29079;41.930;25.558;2022-09-01T07:50:47;99320.16;;;25.12;54.38
7109;BME280;29079;41.930;25.558;2022-09-01T07:53:38;99314.03;;;25.17;54.26
7109;BME280;29079;41.930;25.558;2022-09-01T07:56:09;99318.63;;;25.16;53.19
7109;BME280;29079;41.930;25.558;2022-09-01T07:58:40;99318.41;;;25.06;52.55
7109;BME280;29079;41.930;25.558;2022-09-01T08:01:12;99315.91;;;25.16;52.47
7109;BME280;29079;41.930;25.558;2022-09-01T08:03:48;99312.34;;;25.28;52.61
7109;BME280;29079;41.930;25.558;2022-09-01T08:06:21;99321.84;;;25.37;53.03
7109;BME280;29079;41.930;25.558;2022-09-01T08:08:58;99305.13;;;25.22;52.18
7109;BME280;29079;41.930;25.558;2022-09-01T08:11:29;99312.13;;;25.41;52.83
7109;BME280;29079;41.930;25.558;2022-09-01T08:14:19;99318.41;;;25.53;52.00
7109;BME280;29079;41.930;25.558;2022-09-01T08:16:49;99321.72;;;25.55;51.96
7109;BME280;29079;41.930;25.558;2022-09-01T08:19:20;99301.53;;;25.57;52.31
7109;BME280;29079;41.930;25.558;2022-09-01T08:21:50;99312.69;;;25.67;51.26
7109;BME280;29079;41.930;25.558;2022-09-01T08:24:22;99309.84;;;25.62;51.67
7109;BME280;29079;41.930;25.558;2022-09-01T08:26:52;99307.34;;;25.72;51.73
7109;BME280;29079;41.930;25.558;2022-09-01T08:29:23;99302.16;;;25.87;50.86
7109;BME280;29079;41.930;25.558;2022-09-01T08:31:53;99298.50;;;25.82;50.73
7109;BME280;29079;41.930;25.558;2022-09-01T08:34:23;99300.28;;;25.76;49.88
7109;BME280;29079;41.930;25.558;2022-09-01T08:36:53;99300.50;;;25.86;50.84
7109;BME280;29079;41.930;25.558;2022-09-01T08:39:24;99296.09;;;25.97;50.66
7109;BME280;29079;41.930;25.558;2022-09-01T08:42:01;99296.63;;;26.11;49.68
7109;BME280;29079;41.930;25.558;2022-09-01T08:44:40;99290.47;;;26.16;50.26
7109;BME280;29079;41.930;25.558;2022-09-01T08:47:15;99290.06;;;26.24;50.33
7109;BME280;29079;41.930;25.558;2022-09-01T08:50:00;99290.41;;;26.28;50.12
7109;BME280;29079;41.930;25.558;2022-09-01T08:52:35;99282.63;;;26.36;49.12
7109;BME280;29079;41.930;25.558;2022-09-01T08:55:12;99271.88;;;26.47;48.61
7109;BME280;29079;41.930;25.558;2022-09-01T08:57:44;99266.00;;;26.55;48.55
7109;BME280;29079;41.930;25.558;2022-09-01T09:00:17;99263.56;;;26.58;47.82
7109;BME280;29079;41.930;25.558;2022-09-01T09:03:01;99264.06;;;26.55;48.13
7109;BME280;29079;41.930;25.558;2022-09-01T09:05:53;99254.97;;;26.67;48.13
7109;BME280;29079;41.930;25.558;2022-09-01T09:08:51;99254.13;;;26.66;47.99
7109;BME280;29079;41.930;25.558;2022-09-01T09:11:44;99253.53;;;26.64;47.53
7109;BME280;29079;41.930;25.558;2022-09-01T09:14:26;99252.47;;;26.65;47.82
7109;BME280;29079;41.930;25.558;2022-09-01T09:16:59;99248.88;;;26.77;47.54
7109;BME280;29079;41.930;25.558;2022-09-01T09:19:34;99255.88;;;26.89;47.67
7109;BME280;29079;41.930;25.558;2022-09-01T09:22:07;99256.78;;;26.95;47.21
7109;BME280;29079;41.930;25.558;2022-09-01T09:24:43;99247.41;;;26.91;46.72
7109;BME280;29079;41.930;25.558;2022-09-01T09:27:22;99249.34;;;26.90;46.42
7109;BME280;29079;41.930;25.558;2022-09-01T09:29:55;99240.72;;;26.99;46.77
7109;BME280;29079;41.930;25.558;2022-09-01T09:32:42;99235.28;;;27.04;46.14
7109;BME280;29079;41.930;25.558;2022-09-01T09:35:35;99238.63;;;27.06;45.53
7109;BME280;29079;41.930;25.558;2022-09-01T09:38:19;99233.19;;;27.11;45.76
7109;BME280;29079;41.930;25.558;2022-09-01T09:40:57;99233.78;;;27.13;44.34
7109;BME280;29079;41.930;25.558;2022-09-01T09:43:56;99236.53;;;27.13;45.23
7109;BME280;29079;41.930;25.558;2022-09-01T09:46:35;99229.22;;;27.19;44.46
7109;BME280;29079;41.930;25.558;2022-09-01T09:49:08;99229.53;;;27.22;44.10
7109;BME280;29079;41.930;25.558;2022-09-01T09:51:40;99222.31;;;27.16;44.48
7109;BME280;29079;41.930;25.558;2022-09-01T09:54:12;99213.59;;;27.19;44.68
7109;BME280;29079;41.930;25.558;2022-09-01T09:56:43;99209.16;;;27.13;44.54
7109;BME280;29079;41.930;25.558;2022-09-01T09:59:27;99205.03;;;27.16;45.28
7109;BME280;29079;41.930;25.558;2022-09-01T10:02:24;99204.94;;;27.27;44.32
7109;BME280;29079;41.930;25.558;2022-09-01T10:04:56;99199.78;;;27.31;44.43
7109;BME280;29079;41.930;25.558;2022-09-01T10:07:29;99179.97;;;27.24;44.23
7109;BME280;29079;41.930;25.558;2022-09-01T10:10:03;99189.75;;;27.37;43.83
7109;BME280;29079;41.930;25.558;2022-09-01T10:12:34;99189.34;;;27.50;43.33
7109;BME280;29079;41.930;25.558;2022-09-01T10:15:08;99175.03;;;27.43;44.30
7109;BME280;29079;41.930;25.558;2022-09-01T10:17:43;99183.22;;;27.65;44.17
7109;BME280;29079;41.930;25.558;2022-09-01T10:20:18;99187.94;;;27.70;44.25
7109;BME280;29079;41.930;25.558;2022-09-01T10:22:50;99182.81;;;27.78;43.67
7109;BME280;29079;41.930;25.558;2022-09-01T10:25:22;99151.63;;;27.57;43.81
7109;BME280;29079;41.930;25.558;2022-09-01T10:28:00;99174.97;;;27.87;43.19
7109;BME280;29079;41.930;25.558;2022-09-01T10:30:38;99190.47;;;27.99;42.58
7109;BME280;29079;41.930;25.558;2022-09-01T10:33:15;99185.41;;;27.90;42.80
7109;BME280;29079;41.930;25.558;2022-09-01T10:35:50;99182.34;;;27.87;43.04
7109;BME280;29079;41.930;25.558;2022-09-01T10:38:23;99182.78;;;28.01;41.70
7109;BME280;29079;41.930;25.558;2022-09-01T10:40:55;99174.03;;;28.04;41.21
7109;BME280;29079;41.930;25.558;2022-09-01T10:43:42;99142.41;;;27.96;40.05
7109;BME280;29079;41.930;25.558;2022-09-01T10:46:44;99174.22;;;28.24;40.05
7109;BME280;29079;41.930;25.558;2022-09-01T10:53:02;99172.69;;;28.39;40.07
7109;BME280;29079;41.930;25.558;2022-09-01T10:55:42;99170.41;;;28.25;39.51
7109;BME280;29079;41.930;25.558;2022-09-01T10:58:23;99168.44;;;28.21;41.11
7109;BME280;29079;41.930;25.558;2022-09-01T11:01:15;99167.31;;;28.17;41.45
7109;BME280;29079;41.930;25.558;2022-09-01T11:04:08;99160.63;;;28.40;40.67
7109;BME280;29079;41.930;25.558;2022-09-01T11:06:51;99161.19;;;28.42;39.84
7109;BME280;29079;41.930;25.558;2022-09-01T11:09:44;99142.31;;;28.45;38.98
7109;BME280;29079;41.930;25.558;2022-09-01T11:12:30;99149.66;;;28.40;39.75
7109;BME280;29079;41.930;25.558;2022-09-01T11:15:32;99139.56;;;28.51;40.09
7109;BME280;29079;41.930;25.558;2022-09-01T11:18:08;99146.56;;;28.63;38.73
7109;BME280;29079;41.930;25.558;2022-09-01T11:20:42;99146.25;;;28.60;39.38
7109;BME280;29079;41.930;25.558;2022-09-01T11:23:21;99136.16;;;28.65;38.92
7109;BME280;29079;41.930;25.558;2022-09-01T11:25:53;99129.81;;;28.65;38.83
7109;BME280;29079;41.930;25.558;2022-09-01T11:28:44;99124.53;;;28.58;39.76
7109;BME280;29079;41.930;25.558;2022-09-01T11:31:20;99116.25;;;28.48;39.04
7109;BME280;29079;41.930;25.558;2022-09-01T11:33:58;99129.53;;;28.61;37.54
7109;BME280;29079;41.930;25.558;2022-09-01T11:36:32;99129.59;;;28.72;38.24
7109;BME280;29079;41.930;25.558;2022-09-01T11:39:06;99126.59;;;28.73;37.86
7109;BME280;29079;41.930;25.558;2022-09-01T11:41:48;99108.41;;;28.62;37.54
7109;BME280;29079;41.930;25.558;2022-09-01T11:44:30;99113.88;;;28.62;38.25
7109;BME280;29079;41.930;25.558;2022-09-01T11:47:05;99104.56;;;28.68;37.75
7109;BME280;29079;41.930;25.558;2022-09-01T11:49:48;99102.19;;;28.82;36.96
7109;BME280;29079;41.930;25.558;2022-09-01T11:52:23;99100.53;;;28.81;37.77
7109;BME280;29079;41.930;25.558;2022-09-01T11:54:53;99108.13;;;28.63;39.83
7109;BME280;29079;41.930;25.558;2022-09-01T11:57:29;99101.06;;;28.73;37.54
7109;BME280;29079;41.930;25.558;2022-09-01T12:00:02;99101.66;;;28.85;37.26
7109;BME280;29079;41.930;25.558;2022-09-01T12:02:35;99099.44;;;28.87;36.59
7109;BME280;29079;41.930;25.558;2022-09-01T12:05:24;99100.53;;;28.81;37.64
7109;BME280;29079;41.930;25.558;2022-09-01T12:07:57;99090.72;;;28.95;37.15
7109;BME280;29079;41.930;25.558;2022-09-01T12:10:31;99089.34;;;28.98;37.32
7109;BME280;29079;41.930;25.558;2022-09-01T12:13:04;99076.41;;;28.83;37.82
7109;BME280;29079;41.930;25.558;2022-09-01T12:15:36;99081.97;;;29.04;36.07
7109;BME280;29079;41.930;25.558;2022-09-01T12:18:29;99078.63;;;28.96;37.01
7109;BME280;29079;41.930;25.558;2022-09-01T12:21:01;99076.41;;;28.88;37.36
7109;BME280;29079;41.930;25.558;2022-09-01T12:23:34;99067.88;;;28.85;36.47
7109;BME280;29079;41.930;25.558;2022-09-01T12:26:06;99070.94;;;28.98;37.37
7109;BME280;29079;41.930;25.558;2022-09-01T12:28:38;99050.94;;;29.08;37.11
7109;BME280;29079;41.930;25.558;2022-09-01T12:31:14;99062.22;;;29.12;37.73
7109;BME280;29079;41.930;25.558;2022-09-01T12:33:45;99064.03;;;28.86;39.64
7109;BME280;29079;41.930;25.558;2022-09-01T12:36:21;99026.13;;;28.77;38.81
7109;BME280;29079;41.930;25.558;2022-09-01T12:38:54;99051.19;;;29.01;37.51
7109;BME280;29079;41.930;25.558;2022-09-01T12:41:31;99034.63;;;28.81;37.83
7109;BME280;29079;41.930;25.558;2022-09-01T12:44:25;99043.25;;;29.10;37.66
7109;BME280;29079;41.930;25.558;2022-09-01T12:47:02;99032.59;;;29.24;37.32
7109;BME280;29079;41.930;25.558;2022-09-01T12:49:36;99026.00;;;29.30;37.53
7109;BME280;29079;41.930;25.558;2022-09-01T12:52:22;99025.19;;;29.30;37.38
7109;BME280;29079;41.930;25.558;2022-09-01T12:55:11;99026.28;;;29.24;37.91
7109;BME280;29079;41.930;25.558;2022-09-01T12:58:04;99023.44;;;28.98;39.27
7109;BME280;29079;41.930;25.558;2022-09-01T13:00:52;99021.00;;;29.07;38.86
7109;BME280;29079;41.930;25.558;2022-09-01T13:03:23;99022.63;;;28.97;38.33
7109;BME280;29079;41.930;25.558;2022-09-01T13:05:56;99022.06;;;28.90;39.44
7109;BME280;29079;41.930;25.558;2022-09-01T13:08:29;99014.38;;;28.92;39.05
7109;BME280;29079;41.930;25.558;2022-09-01T13:11:04;99016.00;;;28.83;39.38
7109;BME280;29079;41.930;25.558;2022-09-01T13:13:35;99014.84;;;28.74;39.74
7109;BME280;29079;41.930;25.558;2022-09-01T13:16:05;99015.38;;;28.65;39.20
7109;BME280;29079;41.930;25.558;2022-09-01T13:18:42;99010.16;;;28.64;39.76
7109;BME280;29079;41.930;25.558;2022-09-01T13:21:34;99015.66;;;28.64;38.86
7109;BME280;29079;41.930;25.558;2022-09-01T13:24:05;99006.88;;;28.67;38.89
7109;BME280;29079;41.930;25.558;2022-09-01T13:26:37;99007.88;;;28.56;40.68
7109;BME280;29079;41.930;25.558;2022-09-01T13:29:07;99011.81;;;28.70;40.03
7109;BME280;29079;41.930;25.558;2022-09-01T13:31:38;99002.78;;;28.75;39.98
7109;BME280;29079;41.930;25.558;2022-09-01T13:34:28;99007.69;;;28.68;40.13
7109;BME280;29079;41.930;25.558;2022-09-01T13:36:58;98998.94;;;28.81;39.24
7109;BME280;29079;41.930;25.558;2022-09-01T13:39:28;98995.13;;;28.82;39.41
7109;BME280;29079;41.930;25.558;2022-09-01T13:42:00;98998.72;;;29.03;39.12
7109;BME280;29079;41.930;25.558;2022-09-01T13:44:32;99002.88;;;29.00;38.56
7109;BME280;29079;41.930;25.558;2022-09-01T13:47:03;99008.66;;;29.14;37.86